Time;durP1;ratioP1;P1;durP2;ratioP2;P2;SDS_P1;SDS_P2;PMS_P1;PMS_P2;Temp;Humidity;BMP_temperature;BMP_pressure;BME280_temperature;BME280_humidity;BME280_pressure;Samples;Min_cycle;Max_cycle;Signal;HPM_P1;HPM_P2
2022/08/19 00:00:50;;;;;;;;;;;;;;;25.78;65.16;100547.53;4996570;28;4104;-61
2022/08/19 00:03:16;;;;;;;;;;;;;;;25.79;65.16;100557.69;4995559;28;4184;-61
2022/08/19 00:05:42;;;;;;;;;;;;;;;25.79;65.05;100555.53;4995221;28;4167;-59
2022/08/19 00:08:09;;;;;;;;;;;;;;;25.78;65.17;100554.06;4996842;28;5679;-59
2022/08/19 00:10:35;;;;;;;;;;;;;;;25.78;64.99;100548.25;4994151;28;4134;-62
2022/08/19 00:13:01;;;;;;;;;;;;;;;25.79;65.07;100538.13;4994216;28;5328;-61
2022/08/19 00:15:28;;;;;;;;;;;;;;;25.79;64.67;100537.41;4995794;28;5408;-65
2022/08/19 00:17:54;;;;;;;;;;;;;;;25.79;65.02;100532.31;4997449;28;5326;-61
2022/08/19 00:20:21;;;;;;;;;;;;;;;25.78;65.05;100525.06;4995522;28;5341;-61
2022/08/19 00:22:47;;;;;;;;;;;;;;;25.78;65.19;100525.06;4996446;28;5230;-61
2022/08/19 00:25:14;;;;;;;;;;;;;;;25.78;65.08;100519.25;4996492;28;4030;-61
2022/08/19 00:27:41;;;;;;;;;;;;;;;25.78;65.19;100522.16;4995790;28;4269;-61
2022/08/19 00:30:07;;;;;;;;;;;;;;;25.79;65.02;100522.88;4995674;28;4211;-61
2022/08/19 00:32:34;;;;;;;;;;;;;;;25.77;65.24;100529.41;4996390;28;4582;-61
2022/08/19 00:35:01;;;;;;;;;;;;;;;25.78;65.20;100536.66;4995930;28;4234;-61
2022/08/19 00:37:27;;;;;;;;;;;;;;;25.76;65.02;100533.72;4996005;28;4360;-61
2022/08/19 00:39:53;;;;;;;;;;;;;;;25.77;65.07;100529.41;4995796;28;5384;-61
2022/08/19 00:42:20;;;;;;;;;;;;;;;25.78;65.23;100536.66;4996459;28;4238;-61
2022/08/19 00:44:47;;;;;;;;;;;;;;;25.78;65.07;100522.16;4995250;28;5239;-61
2022/08/19 00:47:13;;;;;;;;;;;;;;;25.77;65.18;100520.72;4996019;28;4112;-61
2022/08/19 00:49:42;;;;;;;;;;;;;;;25.77;65.13;100517.81;4995415;28;4224;-61
2022/08/19 00:52:12;;;;;;;;;;;;;;;25.77;65.19;100525.75;5001745;28;4143;-61
2022/08/19 00:54:39;;;;;;;;;;;;;;;25.78;65.11;100525.06;4994444;28;4717;-60
2022/08/19 00:57:07;;;;;;;;;;;;;;;25.78;65.12;100507.66;4996478;28;3988;-61
2022/08/19 00:59:34;;;;;;;;;;;;;;;25.78;64.95;100509.84;4991444;28;4231;-61
2022/08/19 01:02:20;;;;;;;;;;;;;;;25.77;65.01;100499.66;4992814;28;4275;-61
2022/08/19 01:04:47;;;;;;;;;;;;;;;25.77;65.18;100500.41;4994176;28;4185;-59
2022/08/19 01:07:13;;;;;;;;;;;;;;;25.78;65.27;100501.84;4995161;28;4243;-59
2022/08/19 01:09:44;;;;;;;;;;;;;;;25.78;64.97;100501.84;4997367;28;4184;-58
2022/08/19 01:12:11;;;;;;;;;;;;;;;25.79;64.99;100494.63;4997934;28;4938;-60
2022/08/19 01:14:37;;;;;;;;;;;;;;;25.79;64.51;100500.41;4999788;28;5529;-60
2022/08/19 01:17:16;;;;;;;;;;;;;;;25.79;64.59;100509.13;5001001;28;4243;-60
2022/08/19 01:19:42;;;;;;;;;;;;;;;25.81;64.52;100514.97;4993353;28;4162;-60
2022/08/19 01:22:12;;;;;;;;;;;;;;;25.80;64.44;100522.19;5004348;28;4197;-60
2022/08/19 01:24:41;;;;;;;;;;;;;;;25.79;64.45;100514.19;4999708;28;5302;-60
2022/08/19 01:27:15;;;;;;;;;;;;;;;25.79;64.36;100514.19;4998394;28;4181;-60
2022/08/19 01:29:41;;;;;;;;;;;;;;;25.78;64.47;100530.13;4993981;28;5396;-60
2022/08/19 01:32:08;;;;;;;;;;;;;;;25.78;64.59;100542.47;4995562;28;4082;-59
2022/08/19 01:34:55;;;;;;;;;;;;;;;25.79;64.63;100555.53;5000549;28;5575;-60
2022/08/19 01:37:21;;;;;;;;;;;;;;;25.78;64.48;100559.88;4999050;28;4246;-60
2022/08/19 01:39:53;;;;;;;;;;;;;;;25.79;64.61;100560.59;4998582;28;4155;-59
2022/08/19 01:42:19;;;;;;;;;;;;;;;25.78;64.54;100565.66;4999634;28;5335;-60
2022/08/19 01:44:55;;;;;;;;;;;;;;;25.78;64.52;100568.56;4999870;28;4076;-60
2022/08/19 01:47:22;;;;;;;;;;;;;;;25.79;64.43;100572.19;4998609;28;4262;-60
2022/08/19 01:49:48;;;;;;;;;;;;;;;25.79;64.35;100590.31;4998456;28;4169;-60
2022/08/19 01:52:15;;;;;;;;;;;;;;;25.79;64.26;100590.31;4999021;28;4398;-60
2022/08/19 01:54:41;;;;;;;;;;;;;;;25.80;64.27;100596.88;4996423;28;4234;-61
2022/08/19 01:57:08;;;;;;;;;;;;;;;25.79;64.41;100601.94;4996755;28;4365;-60
2022/08/19 01:59:36;;;;;;;;;;;;;;;25.80;64.57;100597.59;4997752;28;4178;-61
2022/08/19 02:02:04;;;;;;;;;;;;;;;25.79;64.76;100578.72;4999848;28;4241;-61
2022/08/19 02:04:34;;;;;;;;;;;;;;;25.78;64.82;100565.66;4996831;28;4082;-61
2022/08/19 02:07:00;;;;;;;;;;;;;;;25.78;64.88;100576.53;4998634;28;4047;-60
2022/08/19 02:09:26;;;;;;;;;;;;;;;25.78;65.02;100565.66;4999217;28;4110;-61
2022/08/19 02:11:53;;;;;;;;;;;;;;;25.78;65.00;100571.47;4999229;28;4154;-60
2022/08/19 02:14:19;;;;;;;;;;;;;;;25.78;65.05;100577.28;4998739;28;4244;-60
2022/08/19 02:16:45;;;;;;;;;;;;;;;25.77;65.26;100558.41;4997754;28;4510;-60
2022/08/19 02:19:12;;;;;;;;;;;;;;;25.78;65.27;100548.25;4998265;28;4299;-60
2022/08/19 02:21:39;;;;;;;;;;;;;;;25.78;65.31;100536.66;4998142;28;4529;-60
2022/08/19 02:24:05;;;;;;;;;;;;;;;25.77;65.17;100541.00;4998576;28;4221;-60
2022/08/19 02:26:32;;;;;;;;;;;;;;;25.76;65.42;100522.13;4998332;28;4201;-61
2022/08/19 02:29:00;;;;;;;;;;;;;;;25.75;65.42;100514.88;4998617;28;4534;-60
2022/08/19 02:31:27;;;;;;;;;;;;;;;25.75;65.41;100503.25;4997463;28;4263;-60
2022/08/19 02:33:55;;;;;;;;;;;;;;;25.75;65.32;100482.97;4997475;28;4183;-61
2022/08/19 02:36:22;;;;;;;;;;;;;;;25.75;65.57;100448.16;4999375;28;4157;-60
2022/08/19 02:38:48;;;;;;;;;;;;;;;25.74;65.62;100432.19;4998243;28;4521;-60
2022/08/19 02:41:25;;;;;;;;;;;;;;;25.74;65.83;100429.28;4998551;28;4121;-60
2022/08/19 02:43:52;;;;;;;;;;;;;;;25.74;65.61;100420.59;4998490;28;4143;-60
2022/08/19 02:46:39;;;;;;;;;;;;;;;25.73;65.64;100424.94;4964917;28;968977;-60
2022/08/19 02:49:06;;;;;;;;;;;;;;;25.73;65.62;100424.94;5000518;28;4183;-60
2022/08/19 02:51:36;;;;;;;;;;;;;;;25.73;65.72;100413.31;4999174;28;4206;-60
2022/08/19 02:54:03;;;;;;;;;;;;;;;25.73;65.58;100416.22;4999494;28;5172;-60
2022/08/19 02:56:30;;;;;;;;;;;;;;;25.74;65.69;100417.69;4997987;28;4221;-61
2022/08/19 02:58:57;;;;;;;;;;;;;;;25.74;65.72;100414.78;4999987;28;4194;-60
2022/08/19 03:01:25;;;;;;;;;;;;;;;25.75;65.52;100415.50;4999102;28;4244;-60
2022/08/19 03:03:51;;;;;;;;;;;;;;;25.74;65.85;100432.19;4998824;28;4404;-60
2022/08/19 03:06:18;;;;;;;;;;;;;;;25.74;65.67;100431.44;5000379;28;4869;-60
2022/08/19 03:08:45;;;;;;;;;;;;;;;25.73;65.66;100438.69;4997817;28;4143;-60
2022/08/19 03:11:15;;;;;;;;;;;;;;;25.74;65.85;100431.44;4999748;28;5291;-60
2022/08/19 03:13:43;;;;;;;;;;;;;;;25.72;65.77;100435.03;4998688;28;4229;-60
2022/08/19 03:16:09;;;;;;;;;;;;;;;25.73;65.65;100436.53;4999040;28;4241;-60
2022/08/19 03:18:35;;;;;;;;;;;;;;;25.74;65.78;100446.69;4998431;28;4293;-60
2022/08/19 03:21:03;;;;;;;;;;;;;;;25.73;65.64;100430.00;4999198;28;4171;-60
2022/08/19 03:23:29;;;;;;;;;;;;;;;25.72;65.68;100432.16;4998610;28;4004;-61
2022/08/19 03:25:56;;;;;;;;;;;;;;;25.72;65.75;100429.25;4998939;28;4072;-60
2022/08/19 03:28:41;;;;;;;;;;;;;;;25.70;65.89;100432.88;4998310;28;4147;-60
2022/08/19 03:31:14;;;;;;;;;;;;;;;25.71;65.93;100434.31;4998862;28;5433;-60
2022/08/19 03:34:01;;;;;;;;;;;;;;;25.71;65.87;100434.31;4998724;28;4139;-60
2022/08/19 03:36:28;;;;;;;;;;;;;;;25.71;66.12;100427.78;4998507;28;4469;-61
2022/08/19 03:38:58;;;;;;;;;;;;;;;25.71;66.01;100422.00;4998455;28;3972;-60
2022/08/19 03:41:26;;;;;;;;;;;;;;;25.70;66.05;100420.50;4998102;28;4065;-60
2022/08/19 03:44:09;;;;;;;;;;;;;;;25.70;65.96;100423.41;4998970;28;4160;-60
2022/08/19 03:46:43;;;;;;;;;;;;;;;25.71;66.10;100424.88;5002079;28;4204;-60
2022/08/19 03:49:10;;;;;;;;;;;;;;;25.70;65.93;100421.25;5002798;28;4164;-60
2022/08/19 03:51:39;;;;;;;;;;;;;;;25.70;65.94;100417.59;5000977;28;5458;-60
2022/08/19 03:54:06;;;;;;;;;;;;;;;25.70;65.94;100408.91;5001698;28;4267;-60
2022/08/19 03:56:36;;;;;;;;;;;;;;;25.70;65.94;100417.59;5001897;28;4629;-60
2022/08/19 03:59:02;;;;;;;;;;;;;;;25.69;65.82;100421.94;5001129;28;4207;-60
2022/08/19 04:01:29;;;;;;;;;;;;;;;25.69;65.94;100428.47;5001865;28;4749;-62
2022/08/19 04:04:00;;;;;;;;;;;;;;;25.69;66.09;100425.56;5001699;28;4127;-60
2022/08/19 04:06:30;;;;;;;;;;;;;;;25.69;65.94;100439.34;4999016;28;4633;-61
2022/08/19 04:08:57;;;;;;;;;;;;;;;25.67;66.04;100430.63;5001617;28;4183;-60
2022/08/19 04:11:25;;;;;;;;;;;;;;;25.68;66.12;100429.19;5001580;28;4142;-60
2022/08/19 04:14:09;;;;;;;;;;;;;;;25.68;66.07;100435.00;5001775;28;4512;-60
2022/08/19 04:16:36;;;;;;;;;;;;;;;25.67;65.87;100433.50;5001026;28;4172;-60
2022/08/19 04:19:02;;;;;;;;;;;;;;;25.66;66.00;100434.94;5001553;28;4174;-60
2022/08/19 04:21:29;;;;;;;;;;;;;;;25.66;65.98;100449.44;5000801;28;5354;-61
2022/08/19 04:23:55;;;;;;;;;;;;;;;25.66;66.07;100449.44;5001618;28;4004;-61
2022/08/19 04:26:26;;;;;;;;;;;;;;;25.64;66.10;100446.50;5000752;28;4174;-60
2022/08/19 04:28:54;;;;;;;;;;;;;;;25.66;65.94;100449.44;4998818;28;4514;-60
2022/08/19 04:31:27;;;;;;;;;;;;;;;25.66;66.20;100450.19;5001639;28;4087;-60
2022/08/19 04:33:57;;;;;;;;;;;;;;;25.66;66.01;100452.34;5000208;28;4132;-60
2022/08/19 04:36:24;;;;;;;;;;;;;;;25.65;66.09;100450.88;5000915;28;4160;-60
2022/08/19 04:38:52;;;;;;;;;;;;;;;25.65;66.22;100442.16;4998575;28;4523;-60
2022/08/19 04:44:04;;;;;;;;;;;;;;;25.66;66.13;100458.16;5000660;28;4257;-60
2022/08/19 04:46:31;;;;;;;;;;;;;;;25.64;66.03;100461.00;5000387;28;4506;-60
2022/08/19 04:49:17;;;;;;;;;;;;;;;25.65;66.19;100465.38;5000008;28;4181;-60
2022/08/19 04:51:44;;;;;;;;;;;;;;;25.65;66.13;100465.38;4999362;28;4748;-60
2022/08/19 04:54:12;;;;;;;;;;;;;;;25.65;66.06;100471.16;4999215;28;4354;-60
2022/08/19 04:56:39;;;;;;;;;;;;;;;25.63;66.04;100463.19;4998247;28;5158;-61
2022/08/19 04:59:05;;;;;;;;;;;;;;;25.64;66.04;100461.00;4998591;28;4276;-60
2022/08/19 05:01:32;;;;;;;;;;;;;;;25.64;65.94;100455.22;4999168;28;4496;-60
2022/08/19 05:04:00;;;;;;;;;;;;;;;25.64;66.03;100449.41;4998968;28;5380;-60
2022/08/19 05:06:27;;;;;;;;;;;;;;;25.63;65.96;100442.13;4998536;28;5448;-60
2022/08/19 05:08:53;;;;;;;;;;;;;;;25.63;66.17;100445.03;4998768;28;4213;-60
2022/08/19 05:11:25;;;;;;;;;;;;;;;25.62;66.17;100438.50;4999118;28;5690;-60
2022/08/19 05:13:52;;;;;;;;;;;;;;;25.62;66.09;100437.78;4998956;28;4219;-60
2022/08/19 05:16:18;;;;;;;;;;;;;;;25.63;66.12;100430.53;5000465;28;4230;-60
2022/08/19 05:24:15;;;;;;;;;;;;;;;25.62;66.34;100431.97;4998403;28;4148;-60
2022/08/19 05:26:42;;;;;;;;;;;;;;;25.62;66.29;100429.06;4998469;28;5289;-60
2022/08/19 05:29:08;;;;;;;;;;;;;;;25.61;66.32;100424.69;4998248;28;4225;-60
2022/08/19 05:31:35;;;;;;;;;;;;;;;25.62;66.31;100431.97;4997326;28;4057;-60
2022/08/19 05:34:07;;;;;;;;;;;;;;;25.61;66.34;100436.28;4998852;28;4218;-60
2022/08/19 05:36:45;;;;;;;;;;;;;;;25.61;66.33;100430.50;4998229;28;5242;-60
2022/08/19 05:39:13;;;;;;;;;;;;;;;25.62;66.42;100431.97;4999771;28;4118;-60
2022/08/19 05:41:43;;;;;;;;;;;;;;;25.61;66.16;100430.50;4999122;28;5410;-60
2022/08/19 05:44:09;;;;;;;;;;;;;;;25.63;66.45;100450.81;4998517;28;4332;-60
2022/08/19 05:46:37;;;;;;;;;;;;;;;25.62;66.46;100449.38;4996066;28;4153;-60
2022/08/19 05:49:04;;;;;;;;;;;;;;;25.63;66.55;100465.31;4998491;28;4241;-60
2022/08/19 05:51:32;;;;;;;;;;;;;;;25.63;66.47;100471.13;4999744;28;4162;-60
2022/08/19 05:53:58;;;;;;;;;;;;;;;25.63;66.65;100462.44;4999498;28;4170;-60
2022/08/19 05:56:25;;;;;;;;;;;;;;;25.62;66.82;100463.88;4995444;28;4341;-60
2022/08/19 05:58:52;;;;;;;;;;;;;;;25.62;66.69;100466.78;4998130;28;4232;-60
2022/08/19 06:01:18;;;;;;;;;;;;;;;25.62;66.73;100472.56;4999212;28;4340;-60
2022/08/19 06:03:44;;;;;;;;;;;;;;;25.62;66.76;100466.78;4998732;28;4176;-60
2022/08/19 06:06:11;;;;;;;;;;;;;;;25.62;66.75;100458.81;4997937;28;4243;-60
2022/08/19 06:08:38;;;;;;;;;;;;;;;25.62;66.84;100458.81;4997052;28;4040;-60
2022/08/19 06:11:13;;;;;;;;;;;;;;;25.62;66.73;100455.91;4999628;28;4176;-60
2022/08/19 06:13:39;;;;;;;;;;;;;;;25.62;66.62;100438.50;4995491;28;4178;-60
2022/08/19 06:16:06;;;;;;;;;;;;;;;25.63;66.60;100439.22;4998932;28;4510;-60
2022/08/19 06:18:33;;;;;;;;;;;;;;;25.63;66.74;100439.22;4998115;28;4198;-60
2022/08/19 06:21:04;;;;;;;;;;;;;;;25.64;66.64;100434.91;4996836;28;4365;-60
2022/08/19 06:23:30;;;;;;;;;;;;;;;25.64;66.84;100447.25;4998525;28;4365;-61
2022/08/19 06:25:56;;;;;;;;;;;;;;;25.63;66.62;100448.69;4998849;28;4304;-60
2022/08/19 06:28:23;;;;;;;;;;;;;;;25.64;66.89;100452.31;4997939;28;4221;-60
2022/08/19 06:30:51;;;;;;;;;;;;;;;25.63;66.89;100451.59;4995842;28;4283;-61
2022/08/19 06:33:17;;;;;;;;;;;;;;;25.64;66.82;100470.44;4997951;28;4148;-60
2022/08/19 06:35:43;;;;;;;;;;;;;;;25.65;66.79;100471.16;4999175;28;4495;-60
2022/08/19 06:38:15;;;;;;;;;;;;;;;25.65;66.69;100476.97;4997527;28;5593;-60
2022/08/19 06:40:41;;;;;;;;;;;;;;;25.65;66.69;100482.75;4998745;28;4102;-60
2022/08/19 06:43:15;;;;;;;;;;;;;;;25.66;66.70;100501.66;4999400;28;5266;-60
2022/08/19 06:45:43;;;;;;;;;;;;;;;25.66;66.76;100507.44;4998002;28;4238;-60
2022/08/19 06:48:13;;;;;;;;;;;;;;;25.65;66.70;100512.50;4998663;28;4089;-60
2022/08/19 06:50:39;;;;;;;;;;;;;;;25.66;66.74;100501.66;4995925;28;4219;-60
2022/08/19 06:53:06;;;;;;;;;;;;;;;25.65;66.66;100503.06;4998012;28;4147;-60
2022/08/19 06:55:32;;;;;;;;;;;;;;;25.65;66.69;100494.38;4995321;28;4245;-60
2022/08/19 06:58:02;;;;;;;;;;;;;;;25.65;66.72;100498.00;4998687;28;5278;-60
2022/08/19 07:00:28;;;;;;;;;;;;;;;25.65;66.80;100497.25;4996856;28;4296;-60
2022/08/19 07:03:00;;;;;;;;;;;;;;;25.64;67.00;100490.00;4996241;28;5365;-60
2022/08/19 07:05:37;;;;;;;;;;;;;;;25.66;66.97;100490.03;4995585;28;4507;-61
2022/08/19 07:08:05;;;;;;;;;;;;;;;25.64;67.11;100484.94;4998243;28;4496;-60
2022/08/19 07:10:32;;;;;;;;;;;;;;;25.65;67.10;100482.75;4996686;28;4324;-61
2022/08/19 07:12:59;;;;;;;;;;;;;;;25.65;67.25;100471.16;4997280;28;5004;-60
2022/08/19 07:15:25;;;;;;;;;;;;;;;25.64;67.14;100469.72;4998670;28;4559;-60
2022/08/19 07:17:51;;;;;;;;;;;;;;;25.65;67.30;100474.06;4995356;28;4544;-60
2022/08/19 07:20:18;;;;;;;;;;;;;;;25.65;67.26;100476.97;4998932;28;4268;-60
2022/08/19 07:22:45;;;;;;;;;;;;;;;25.66;67.27;100481.34;5001483;28;5163;-60
2022/08/19 07:25:13;;;;;;;;;;;;;;;25.66;67.21;100490.03;5001959;28;4084;-60
2022/08/19 07:27:39;;;;;;;;;;;;;;;25.65;67.16;100500.16;5001754;28;4068;-60
2022/08/19 07:30:06;;;;;;;;;;;;;;;25.66;67.15;100519.03;5001982;28;5400;-60
2022/08/19 07:32:36;;;;;;;;;;;;;;;25.66;67.05;100521.94;5002167;28;5381;-60
2022/08/19 07:35:05;;;;;;;;;;;;;;;25.66;67.12;100525.56;5002639;28;5523;-60
2022/08/19 07:37:31;;;;;;;;;;;;;;;25.65;67.12;100527.00;5001535;28;5289;-60
2022/08/19 07:39:59;;;;;;;;;;;;;;;25.66;67.12;100534.28;5000961;28;4159;-60
2022/08/19 07:42:26;;;;;;;;;;;;;;;25.67;67.16;100532.09;5000349;28;4363;-60
2022/08/19 07:44:52;;;;;;;;;;;;;;;25.65;66.78;100526.25;5000690;28;5405;-60
2022/08/19 07:47:19;;;;;;;;;;;;;;;25.67;67.04;100538.63;5001165;28;4237;-60
2022/08/19 07:50:06;;;;;;;;;;;;;;;25.68;67.16;100539.38;5000512;28;4515;-60
2022/08/19 07:52:33;;;;;;;;;;;;;;;25.68;67.10;100533.59;5001515;28;4563;-60
2022/08/19 07:55:03;;;;;;;;;;;;;;;25.67;67.14;100537.91;5001925;28;5350;-60
2022/08/19 07:57:29;;;;;;;;;;;;;;;25.68;67.29;100524.88;5000536;28;4163;-60
2022/08/19 07:59:56;;;;;;;;;;;;;;;25.66;67.10;100531.38;5003009;28;4399;-60
2022/08/19 08:02:22;;;;;;;;;;;;;;;25.66;67.22;100540.06;5000877;28;4141;-60
2022/08/19 08:10:18;;;;;;;;;;;;;;;25.67;67.21;100549.50;5000166;28;5498;-60
2022/08/19 08:12:46;;;;;;;;;;;;;;;25.66;67.29;100548.78;5001590;28;4258;-60
2022/08/19 08:15:33;;;;;;;;;;;;;;;25.66;67.49;100562.53;5000711;28;5261;-60
2022/08/19 08:18:05;;;;;;;;;;;;;;;25.66;67.65;100560.38;5000151;28;4218;-60
2022/08/19 08:20:32;;;;;;;;;;;;;;;25.66;67.62;100559.63;5000730;28;4126;-60
2022/08/19 08:25:47;;;;;;;;;;;;;;;25.67;67.40;100566.91;5000136;28;4031;-60
2022/08/19 08:28:14;;;;;;;;;;;;;;;25.67;67.37;100572.69;5000414;28;4249;-60
2022/08/19 08:30:43;;;;;;;;;;;;;;;25.66;67.59;100571.25;4999341;28;4102;-60
2022/08/19 08:33:10;;;;;;;;;;;;;;;25.67;67.57;100572.69;5000036;28;4167;-61
2022/08/19 08:35:37;;;;;;;;;;;;;;;25.67;67.52;100564.00;5005239;28;4007;-60
2022/08/19 08:38:04;;;;;;;;;;;;;;;25.66;67.61;100565.44;5001100;28;6159;-60
2022/08/19 08:40:38;;;;;;;;;;;;;;;25.66;67.45;100559.63;5000222;28;4217;-60
2022/08/19 08:43:23;;;;;;;;;;;;;;;25.66;67.57;100560.38;5006745;28;4029;-61
2022/08/19 08:46:03;;;;;;;;;;;;;;;25.66;67.76;100565.44;4999314;28;5432;-60
2022/08/19 08:48:33;;;;;;;;;;;;;;;25.66;67.60;100565.44;5000772;28;4791;-61
2022/08/19 08:50:59;;;;;;;;;;;;;;;25.66;67.81;100577.75;5004214;28;3998;-60
2022/08/19 08:53:26;;;;;;;;;;;;;;;25.66;67.91;100577.75;4999035;28;4141;-60
2022/08/19 08:56:00;;;;;;;;;;;;;;;25.66;67.98;100571.25;4999499;28;5266;-60
2022/08/19 08:58:41;;;;;;;;;;;;;;;25.66;67.98;100579.94;4999744;28;4153;-60
2022/08/19 09:01:09;;;;;;;;;;;;;;;25.66;67.82;100580.66;4998681;28;5185;-60
2022/08/19 09:03:36;;;;;;;;;;;;;;;25.67;67.85;100587.19;4999820;28;4188;-61
2022/08/19 09:06:02;;;;;;;;;;;;;;;25.67;67.83;100584.28;4999321;28;4197;-60
2022/08/19 09:08:34;;;;;;;;;;;;;;;25.66;67.54;100583.56;5000004;28;4112;-62
2022/08/19 09:11:04;;;;;;;;;;;;;;;25.67;67.56;100587.19;5000083;28;4241;-60
2022/08/19 09:13:41;;;;;;;;;;;;;;;25.66;67.77;100594.44;4999223;28;4254;-61
2022/08/19 09:16:09;;;;;;;;;;;;;;;25.65;67.85;100599.47;5003232;28;4247;-60
2022/08/19 09:18:41;;;;;;;;;;;;;;;25.65;67.81;100598.75;4998664;28;5306;-60
2022/08/19 09:21:08;;;;;;;;;;;;;;;25.66;68.07;100597.34;4999131;28;5287;-60
2022/08/19 09:23:35;;;;;;;;;;;;;;;25.67;68.09;100590.09;4997132;28;4170;-60
2022/08/19 09:26:05;;;;;;;;;;;;;;;25.67;68.00;100585.03;4999214;28;4318;-60
2022/08/19 09:28:36;;;;;;;;;;;;;;;25.68;67.98;100585.78;4997584;28;5277;-60
2022/08/19 09:31:04;;;;;;;;;;;;;;;25.68;67.97;100579.97;4998629;28;4202;-61
2022/08/19 09:33:31;;;;;;;;;;;;;;;25.66;67.95;100579.94;4999247;28;4192;-61
2022/08/19 09:36:07;;;;;;;;;;;;;;;25.67;67.93;100585.03;5000652;28;6418;-61
2022/08/19 09:38:34;;;;;;;;;;;;;;;25.67;67.95;100585.03;5000562;28;4086;-61
2022/08/19 09:41:06;;;;;;;;;;;;;;;25.68;67.86;100588.69;4998897;28;5549;-60
2022/08/19 09:43:36;;;;;;;;;;;;;;;25.68;67.99;100585.78;4997638;28;4258;-60
2022/08/19 09:46:11;;;;;;;;;;;;;;;25.68;67.76;100591.56;4997129;28;5350;-60
2022/08/19 09:48:44;;;;;;;;;;;;;;;25.68;67.90;100574.19;4999518;28;4192;-60
2022/08/19 09:51:12;;;;;;;;;;;;;;;25.67;67.86;100567.63;4998951;28;4244;-60
2022/08/19 09:53:39;;;;;;;;;;;;;;;25.69;68.00;100581.44;4999130;28;5294;-60
2022/08/19 09:56:05;;;;;;;;;;;;;;;25.68;67.89;100580.72;4997477;28;5541;-61
2022/08/19 09:58:34;;;;;;;;;;;;;;;25.68;68.29;100574.19;4998854;28;4103;-60
2022/08/19 10:01:00;;;;;;;;;;;;;;;25.68;67.93;100574.91;4996938;28;4233;-60
2022/08/19 10:03:27;;;;;;;;;;;;;;;25.69;67.85;100587.25;4996647;28;4186;-60
2022/08/19 10:05:55;;;;;;;;;;;;;;;25.69;67.73;100582.16;4999396;28;4175;-60
2022/08/19 10:08:23;;;;;;;;;;;;;;;25.69;67.70;100581.44;4999295;28;4257;-60
2022/08/19 10:10:51;;;;;;;;;;;;;;;25.69;67.69;100581.44;4998363;28;4144;-60
2022/08/19 10:13:22;;;;;;;;;;;;;;;25.69;67.67;100587.97;4998573;28;4076;-60
2022/08/19 10:15:50;;;;;;;;;;;;;;;25.67;67.66;100582.13;4999184;28;4138;-60
2022/08/19 10:18:19;;;;;;;;;;;;;;;25.69;67.64;100590.13;4999025;28;4145;-61
2022/08/19 10:20:46;;;;;;;;;;;;;;;25.69;67.68;100581.44;4998732;28;5377;-60
2022/08/19 10:23:17;;;;;;;;;;;;;;;25.68;67.43;100577.81;4997380;28;4237;-61
2022/08/19 10:25:43;;;;;;;;;;;;;;;25.68;67.59;100580.72;4997771;28;5477;-60
2022/08/19 10:28:11;;;;;;;;;;;;;;;25.69;67.54;100578.53;4999291;28;5287;-61
2022/08/19 10:30:38;;;;;;;;;;;;;;;25.69;67.54;100569.84;4998751;28;4193;-60
2022/08/19 10:33:05;;;;;;;;;;;;;;;25.70;67.48;100577.09;4998289;28;4120;-60
2022/08/19 10:35:36;;;;;;;;;;;;;;;25.68;67.46;100563.31;4998799;28;4200;-61
2022/08/19 10:38:08;;;;;;;;;;;;;;;25.69;67.56;100558.25;5000281;28;5422;-60
2022/08/19 10:40:35;;;;;;;;;;;;;;;25.69;67.51;100564.03;4999155;28;4183;-61
2022/08/19 10:43:01;;;;;;;;;;;;;;;25.69;67.50;100564.03;5000051;28;5286;-60
2022/08/19 10:45:28;;;;;;;;;;;;;;;25.68;67.25;100566.22;4998958;28;4062;-60
2022/08/19 10:47:54;;;;;;;;;;;;;;;25.69;67.46;100566.94;4998627;28;4220;-60
2022/08/19 10:53:09;;;;;;;;;;;;;;;25.69;67.29;100558.25;4997399;28;4519;-60
2022/08/19 10:58:24;;;;;;;;;;;;;;;25.68;67.10;100563.31;5001484;28;4063;-60
2022/08/19 11:00:52;;;;;;;;;;;;;;;25.68;67.19;100556.78;5001779;28;4554;-61
2022/08/19 11:03:19;;;;;;;;;;;;;;;25.68;66.91;100551.72;5002141;28;4021;-61
2022/08/19 11:05:46;;;;;;;;;;;;;;;25.69;66.94;100558.25;5002252;28;4184;-61
2022/08/19 11:08:12;;;;;;;;;;;;;;;25.69;66.77;100564.03;5002974;28;5324;-61
2022/08/19 11:10:57;;;;;;;;;;;;;;;25.69;66.65;100569.84;5001420;28;4696;-60
2022/08/19 11:13:24;;;;;;;;;;;;;;;25.68;66.57;100568.38;5001055;28;5515;-61
2022/08/19 11:16:07;;;;;;;;;;;;;;;25.68;66.53;100572.00;5001257;28;5612;-61
2022/08/19 11:18:38;;;;;;;;;;;;;;;25.70;66.63;100577.09;5000089;28;4241;-62
2022/08/19 11:21:05;;;;;;;;;;;;;;;25.69;66.37;100578.53;5000661;28;6245;-61
2022/08/19 11:23:31;;;;;;;;;;;;;;;25.69;66.53;100576.38;5002370;28;5433;-62
2022/08/19 11:25:59;;;;;;;;;;;;;;;25.69;66.23;100576.38;5000652;28;4699;-61
2022/08/19 11:28:25;;;;;;;;;;;;;;;25.70;66.38;100571.28;5002207;28;4224;-62
2022/08/19 11:30:52;;;;;;;;;;;;;;;25.69;66.27;100579.25;4997975;28;4179;-62
2022/08/19 11:33:18;;;;;;;;;;;;;;;25.69;66.31;100578.53;5002707;28;4182;-62
2022/08/19 11:35:45;;;;;;;;;;;;;;;25.69;66.23;100575.63;5001191;28;4174;-61
2022/08/19 11:38:11;;;;;;;;;;;;;;;25.69;66.21;100575.63;4999698;28;5422;-60
2022/08/19 11:40:38;;;;;;;;;;;;;;;25.69;66.19;100582.16;5001242;28;4139;-60
2022/08/19 11:43:04;;;;;;;;;;;;;;;25.69;66.24;100584.34;4999454;28;4345;-61
2022/08/19 11:45:30;;;;;;;;;;;;;;;25.69;66.25;100587.25;5000874;28;5305;-61
2022/08/19 11:47:57;;;;;;;;;;;;;;;25.69;66.17;100590.88;5000675;28;4526;-61
2022/08/19 11:50:23;;;;;;;;;;;;;;;25.69;66.03;100593.03;5001617;28;5452;-61
2022/08/19 11:52:50;;;;;;;;;;;;;;;25.69;66.11;100590.88;4999900;28;5251;-61
2022/08/19 11:55:16;;;;;;;;;;;;;;;25.70;65.96;100594.50;5000327;28;4286;-61
2022/08/19 11:57:43;;;;;;;;;;;;;;;25.69;66.07;100590.88;5001099;28;4299;-61
2022/08/19 12:00:12;;;;;;;;;;;;;;;25.69;66.18;100604.63;5002203;28;4162;-61
2022/08/19 12:02:39;;;;;;;;;;;;;;;25.70;65.89;100600.28;5001230;28;4231;-61
2022/08/19 12:05:05;;;;;;;;;;;;;;;25.69;65.91;100604.63;5000636;28;4476;-61
2022/08/19 12:07:37;;;;;;;;;;;;;;;25.69;65.97;100598.84;5000643;28;4482;-61
2022/08/19 12:10:04;;;;;;;;;;;;;;;25.69;65.76;100607.53;5000164;28;4251;-61
2022/08/19 12:12:30;;;;;;;;;;;;;;;25.70;65.96;100603.19;5001468;28;4772;-61
2022/08/19 12:14:58;;;;;;;;;;;;;;;25.69;65.78;100595.94;5002713;28;4199;-61
2022/08/19 12:17:25;;;;;;;;;;;;;;;25.69;65.81;100593.75;5001873;28;4230;-61
2022/08/19 12:19:51;;;;;;;;;;;;;;;25.70;65.84;100603.19;5001684;28;4180;-61
2022/08/19 12:22:18;;;;;;;;;;;;;;;25.70;65.75;100600.28;5000735;28;4210;-61
2022/08/19 12:24:44;;;;;;;;;;;;;;;25.70;65.83;100600.28;4999405;28;4192;-61
2022/08/19 12:27:11;;;;;;;;;;;;;;;25.70;65.57;100600.28;5001989;28;4374;-61
2022/08/19 12:29:38;;;;;;;;;;;;;;;25.69;65.85;100602.47;5000892;28;4177;-61
2022/08/19 12:32:04;;;;;;;;;;;;;;;25.69;65.73;100611.16;5002165;28;4235;-61
2022/08/19 12:34:31;;;;;;;;;;;;;;;25.70;65.68;100606.09;5002606;28;4208;-60
2022/08/19 12:36:58;;;;;;;;;;;;;;;25.70;65.73;100609.00;5000816;28;5242;-62
2022/08/19 12:39:24;;;;;;;;;;;;;;;25.69;65.73;100605.38;5001557;28;4269;-62
2022/08/19 12:41:51;;;;;;;;;;;;;;;25.70;65.62;100611.91;5000082;28;4615;-62
2022/08/19 12:44:20;;;;;;;;;;;;;;;25.69;65.60;100616.97;5000995;28;4502;-61
2022/08/19 12:46:54;;;;;;;;;;;;;;;25.70;65.74;100612.66;5000030;28;5216;-60
2022/08/19 12:49:21;;;;;;;;;;;;;;;25.70;65.60;100629.28;5001814;28;4552;-61
2022/08/19 12:52:07;;;;;;;;;;;;;;;25.70;65.61;100617.69;4997238;28;5242;-61
2022/08/19 12:54:34;;;;;;;;;;;;;;;25.70;65.60;100617.69;4998525;28;4392;-62
2022/08/19 12:57:04;;;;;;;;;;;;;;;25.71;65.62;100610.47;4998740;28;4017;-61
2022/08/19 12:59:30;;;;;;;;;;;;;;;25.70;65.51;100612.66;5002942;28;4279;-61
2022/08/19 13:01:57;;;;;;;;;;;;;;;25.71;65.66;100613.38;4995567;28;4279;-61
2022/08/19 13:04:23;;;;;;;;;;;;;;;25.70;65.43;100617.69;4999331;28;4257;-61
2022/08/19 13:06:50;;;;;;;;;;;;;;;25.70;65.56;100624.25;5000834;28;4228;-61
2022/08/19 13:09:16;;;;;;;;;;;;;;;25.71;65.43;100619.19;4997498;28;4189;-60
2022/08/19 13:11:43;;;;;;;;;;;;;;;25.70;65.59;100618.44;4999232;28;4167;-61
2022/08/19 13:14:10;;;;;;;;;;;;;;;25.71;65.93;100619.19;4999446;28;4158;-61
2022/08/19 13:16:37;;;;;;;;;;;;;;;25.70;65.90;100627.16;5000335;28;4209;-61